This is the latest recevied weather packets stored in our database for station/object Ostrach. If no packets are shown the sender has not sent any weather packets the latest 10 day(s).
| Time | Temp. | Humidity | Pressure | Rain* | Wind** | Luminosity | Snow |
|---|---|---|---|---|---|---|---|
| 1778205731 | 5.56° C | 92% | 1013.4 hPa | 0 mm | - | - | - |
| 1778203931 | 6.11° C | 92% | 1013.4 hPa | 0 mm | - | - | - |
| 1778202131 | 5.56° C | 91% | 1013.4 hPa | 0 mm | - | - | - |
| 1778200330 | 6.11° C | 91% | 1013.5 hPa | 0 mm | - | - | - |
| 1778198529 | 6.11° C | 88% | 1013.6 hPa | 0 mm | - | - | - |
| 1778196729 | 6.67° C | 88% | 1014 hPa | 0 mm | - | - | - |
| 1778194935 | 7.78° C | 86% | 1014.2 hPa | 0 mm | - | - | - |
| 1778193130 | 8.89° C | 83% | 1014.3 hPa | 0 mm | - | - | - |
| 1778191329 | 10° C | 82% | 1014.2 hPa | 1.27 mm | - | - | - |
| 1778189531 | 10.56° C | 81% | 1014.2 hPa | 1.27 mm | - | - | - |
| 1778187729 | 10.56° C | 80% | 1014.2 hPa | 1.27 mm | - | - | - |
| 1778185929 | 11.67° C | 78% | 1013.7 hPa | 1.27 mm | - | - | - |
| 1778184129 | 11.67° C | 76% | 1013.7 hPa | 1.27 mm | - | - | - |
| 1778182330 | 12.22° C | 76% | 1013.5 hPa | 1.27 mm | - | - | - |
| 1778180532 | 12.78° C | 75% | 1013.1 hPa | 1.27 mm | - | - | - |
| 1778178730 | 13.33° C | 70% | 1012.9 hPa | 1.27 mm | - | - | - |
| 1778176930 | 14.44° C | 64% | 1012.5 hPa | 1.27 mm | - | - | - |
| 1778175130 | 15° C | 62% | 1012.3 hPa | 1.27 mm | - | - | - |
| 1778173330 | 15° C | 61% | 1012.3 hPa | 1.27 mm | - | - | - |
| 1778171530 | 15.56° C | 59% | 1012.3 hPa | 1.27 mm | - | - | - |
| 1778169731 | 15.56° C | 64% | 1012.3 hPa | 1.27 mm | - | - | - |
| 1778167931 | 15.56° C | 63% | 1012.4 hPa | 1.27 mm | - | - | - |
| 1778166130 | 16.11° C | 63% | 1012.4 hPa | 1.27 mm | - | - | - |
| 1778164332 | 14.44° C | 69% | 1012.4 hPa | 1.27 mm | - | - | - |
| 1778162530 | 15° C | 68% | 1012.5 hPa | 1.27 mm | - | - | - |
* Rain since midnight (hover to see other rain measurements)
** Current wind speed in m/s (hover to see current wind gust speed)